Terminal Aerodrome Forecast
Issued by NWS Wilmington, OH

Home | Current Version | Previous Version | Text Only | Print | Product List | Glossary On
Versions: 1 2 3 4 5 6 7 8 9 10 11 12 13 14 15 16 17 18 19 20
000
FTUS41 KILN 291400 AAA
TAFCVG
TAF AMD
KCVG 291458Z 2915/3018 14008KT P6SM FEW060 BKN200
     FM292100 14005KT P6SM VCSH SCT060 BKN200
     FM300000 13005KT P6SM SCT050 BKN200
     FM301300 20009KT P6SM BKN050
     FM301700 21010G18KT P6SM VCTS BKN050CB=

USA.gov is the U.S. government's official web portal to all federal, state and local government web resources and services.